createdAt,value
2023-04-17T00:01:12.135Z,10.80
2023-04-17T00:02:32.991Z,10.80
2023-04-17T00:03:55.117Z,10.80
2023-04-17T00:05:15.858Z,10.90
2023-04-17T00:06:39.459Z,10.80
2023-04-17T00:08:07.870Z,10.90
2023-04-17T00:09:28.535Z,10.80
2023-04-17T00:11:00.575Z,10.70
2023-04-17T00:12:28.317Z,10.80
2023-04-17T00:13:49.428Z,10.80
2023-04-17T00:15:13.881Z,10.70
2023-04-17T00:16:34.723Z,10.80
2023-04-17T00:17:57.657Z,10.80
2023-04-17T00:19:19.513Z,10.70
2023-04-17T00:20:40.119Z,10.70
2023-04-17T00:22:02.501Z,10.60
2023-04-17T00:23:23.458Z,10.50
2023-04-17T00:24:44.057Z,10.40
2023-04-17T00:26:05.276Z,10.40
2023-04-17T00:27:26.134Z,10.40
2023-04-17T00:28:49.598Z,10.40
2023-04-17T00:30:14.083Z,10.50
2023-04-17T00:31:35.365Z,10.60
2023-04-17T00:33:05.092Z,10.60
2023-04-17T00:34:30.484Z,10.60
2023-04-17T00:35:51.942Z,10.60
2023-04-17T00:37:13.226Z,10.60
2023-04-17T00:38:33.647Z,10.60
2023-04-17T00:39:54.516Z,10.60
2023-04-17T00:41:15.289Z,10.60
2023-04-17T00:42:45.346Z,10.60
2023-04-17T00:44:07.479Z,10.60
2023-04-17T00:45:32.430Z,10.60
2023-04-17T00:46:58.389Z,10.60
2023-04-17T00:48:30.760Z,10.60
2023-04-17T00:49:57.686Z,10.50
2023-04-17T00:51:18.705Z,10.50
2023-04-17T00:52:43.242Z,10.50
2023-04-17T00:54:04.719Z,10.50
2023-04-17T00:55:31.337Z,10.40
2023-04-17T00:57:00.475Z,10.40
2023-04-17T00:58:26.514Z,10.40
2023-04-17T00:59:52.477Z,10.50
2023-04-17T01:01:16.629Z,10.40
2023-04-17T01:02:38.263Z,10.40
2023-04-17T01:03:59.115Z,10.50
2023-04-17T01:05:21.528Z,10.50
2023-04-17T01:06:42.429Z,10.50
2023-04-17T01:08:03.441Z,10.60
2023-04-17T01:09:24.099Z,10.40
2023-04-17T01:10:44.991Z,10.40
2023-04-17T01:12:18.783Z,10.40
2023-04-17T01:13:45.482Z,10.30
2023-04-17T01:15:06.906Z,10.30
2023-04-17T01:16:27.813Z,10.30
2023-04-17T01:17:48.334Z,10.30
2023-04-17T01:19:09.190Z,10.30
2023-04-17T01:20:32.070Z,10.40
2023-04-17T01:21:52.589Z,10.40
2023-04-17T01:23:13.455Z,10.50
2023-04-17T01:24:35.557Z,10.40
2023-04-17T01:25:56.406Z,10.40
2023-04-17T01:27:17.122Z,10.40
2023-04-17T01:28:37.934Z,10.30
2023-04-17T01:29:58.236Z,10.40
2023-04-17T01:31:19.089Z,10.30
2023-04-17T01:32:39.785Z,10.20
2023-04-17T01:34:00.556Z,10.20
2023-04-17T01:35:21.298Z,10.10
2023-04-17T01:36:42.745Z,10.20
2023-04-17T01:38:03.182Z,10.20
2023-04-17T01:39:23.850Z,10.20
2023-04-17T01:40:46.190Z,10.20
2023-04-17T01:42:06.973Z,10.30
2023-04-17T01:43:29.134Z,10.40
2023-04-17T01:44:49.466Z,10.30
2023-04-17T01:46:10.470Z,10.30
2023-04-17T01:47:31.447Z,10.20
2023-04-17T01:48:52.269Z,10.20
2023-04-17T01:50:13.688Z,10.20
2023-04-17T01:51:34.204Z,10.20
2023-04-17T01:52:55.282Z,10.20
2023-04-17T01:54:15.718Z,10.30
2023-04-17T01:55:36.533Z,10.40
2023-04-17T01:56:58.521Z,10.20
2023-04-17T01:58:19.009Z,10.20
2023-04-17T01:59:40.078Z,10.20
2023-04-17T02:01:00.858Z,10.30
2023-04-17T02:02:21.633Z,10.30
2023-04-17T02:03:42.447Z,10.30
2023-04-17T02:05:03.649Z,10.30
2023-04-17T02:06:24.366Z,10.30
2023-04-17T02:07:45.027Z,10.30
2023-04-17T02:09:07.197Z,10.40
2023-04-17T02:10:27.918Z,10.40
2023-04-17T02:11:48.840Z,10.40
2023-04-17T02:13:11.624Z,10.40
2023-04-17T02:14:32.164Z,10.30
2023-04-17T02:15:52.945Z,10.30
2023-04-17T02:17:13.731Z,10.40
2023-04-17T02:18:34.392Z,10.40
2023-04-17T02:19:55.070Z,10.50
2023-04-17T02:21:15.887Z,10.50
2023-04-17T02:22:36.750Z,10.50
2023-04-17T02:23:57.624Z,10.50
2023-04-17T02:25:18.185Z,10.40
2023-04-17T02:26:39.229Z,10.50
2023-04-17T02:28:00.557Z,10.50
2023-04-17T02:29:22.725Z,10.50
2023-04-17T02:30:43.471Z,10.40
2023-04-17T02:32:04.617Z,10.40
2023-04-17T02:33:25.357Z,10.40
2023-04-17T02:34:46.031Z,10.30
2023-04-17T02:36:07.332Z,10.40
2023-04-17T02:37:27.807Z,10.50
2023-04-17T02:38:48.677Z,10.50
2023-04-17T02:40:10.158Z,10.50
2023-04-17T02:41:30.974Z,10.50
2023-04-17T02:42:51.979Z,10.50
2023-04-17T02:44:12.441Z,10.50
2023-04-17T02:45:34.579Z,10.50
2023-04-17T02:46:55.227Z,10.60
2023-04-17T02:48:16.272Z,10.60
2023-04-17T02:49:36.762Z,10.70
2023-04-17T02:50:57.552Z,10.70
2023-04-17T02:52:18.779Z,10.60
2023-04-17T02:53:39.392Z,10.60
2023-04-17T02:55:00.173Z,10.50
2023-04-17T02:56:20.826Z,10.50
2023-04-17T02:57:41.678Z,10.50
2023-04-17T02:59:02.272Z,10.50
2023-04-17T03:00:23.295Z,10.60
2023-04-17T03:01:45.128Z,10.50
2023-04-17T03:03:05.540Z,10.60
2023-04-17T03:04:26.762Z,10.60
2023-04-17T03:05:47.397Z,10.50
2023-04-17T03:07:07.985Z,10.50
2023-04-17T03:08:28.523Z,10.50
2023-04-17T03:09:50.012Z,10.50
2023-04-17T03:11:10.629Z,10.50
2023-04-17T03:12:31.484Z,10.50
2023-04-17T03:13:51.970Z,10.40
2023-04-17T03:15:12.641Z,10.30
2023-04-17T03:16:33.394Z,10.20
2023-04-17T03:17:55.705Z,10.10
2023-04-17T03:19:16.286Z,10.10
2023-04-17T03:20:36.858Z,10.10
2023-04-17T03:21:57.631Z,10.10
2023-04-17T03:23:18.515Z,10.10
2023-04-17T03:24:39.274Z,10.10
2023-04-17T03:26:01.706Z,10.20
2023-04-17T03:27:22.485Z,10.10
2023-04-17T03:28:43.010Z,10.00
2023-04-17T03:30:04.097Z,10.00
2023-04-17T03:31:24.766Z,10.10
2023-04-17T03:32:45.362Z,10.10
2023-04-17T03:34:08.220Z,10.10
2023-04-17T03:35:29.072Z,10.10
2023-04-17T03:36:50.091Z,10.10
2023-04-17T03:38:10.579Z,10.10
2023-04-17T03:39:31.496Z,10.10
2023-04-17T03:40:51.955Z,10.10
2023-04-17T03:42:12.518Z,10.10
2023-04-17T03:43:33.189Z,10.00
2023-04-17T03:44:53.723Z,10.00
2023-04-17T03:46:14.193Z,10.00
2023-04-17T03:47:34.917Z,10.10
2023-04-17T03:48:55.729Z,10.10
2023-04-17T03:50:18.074Z,10.00
2023-04-17T03:51:38.903Z,10.10
2023-04-17T03:52:59.588Z,10.10
2023-04-17T03:54:20.486Z,10.10
2023-04-17T03:55:41.231Z,10.20
2023-04-17T03:57:02.528Z,10.20
2023-04-17T03:58:23.873Z,10.00
2023-04-17T03:59:44.417Z,10.10
2023-04-17T04:01:07.020Z,10.20
2023-04-17T04:02:27.596Z,10.20
2023-04-17T04:03:48.404Z,10.20
2023-04-17T04:05:12.220Z,10.10
2023-04-17T04:06:34.216Z,10.20
2023-04-17T04:07:54.720Z,10.30
2023-04-17T04:09:15.673Z,10.30
2023-04-17T04:10:36.449Z,10.30
2023-04-17T04:11:57.174Z,10.30
2023-04-17T04:13:17.843Z,10.30
2023-04-17T04:14:41.207Z,10.40
2023-04-17T04:16:02.301Z,10.30
2023-04-17T04:17:23.026Z,10.20
2023-04-17T04:18:43.672Z,10.10
2023-04-17T04:20:05.264Z,10.00
2023-04-17T04:21:25.701Z,10.10
2023-04-17T04:22:47.534Z,10.00
2023-04-17T04:24:08.214Z,10.00
2023-04-17T04:25:28.858Z,10.00
2023-04-17T04:26:49.381Z,10.10
2023-04-17T04:28:10.397Z,10.10
2023-04-17T04:29:31.125Z,10.10
2023-04-17T04:30:51.830Z,10.10
2023-04-17T04:32:12.604Z,10.10
2023-04-17T04:33:33.244Z,10.10
2023-04-17T04:34:53.738Z,10.10
2023-04-17T04:36:14.795Z,10.10
2023-04-17T04:37:35.675Z,10.20
2023-04-17T04:38:58.204Z,10.20
2023-04-17T04:40:19.149Z,10.30
2023-04-17T04:41:39.919Z,10.30
2023-04-17T04:43:00.648Z,10.30
2023-04-17T04:44:21.712Z,10.30
2023-04-17T04:45:42.711Z,10.40
2023-04-17T04:47:03.635Z,10.40
2023-04-17T04:48:24.405Z,10.40
2023-04-17T04:49:44.973Z,10.30
2023-04-17T04:51:06.021Z,10.30
2023-04-17T04:52:26.659Z,10.20
2023-04-17T04:53:47.242Z,10.20
2023-04-17T04:55:09.766Z,10.30
2023-04-17T04:56:32.807Z,10.30
2023-04-17T04:57:53.762Z,10.30
2023-04-17T04:59:14.819Z,10.30
2023-04-17T05:00:35.509Z,10.20
2023-04-17T05:01:56.497Z,10.20
2023-04-17T05:03:17.241Z,10.10
2023-04-17T05:04:38.640Z,10.10
2023-04-17T05:05:59.821Z,10.20
2023-04-17T05:07:20.831Z,10.20
2023-04-17T05:08:41.769Z,10.20
2023-04-17T05:10:02.518Z,10.20
2023-04-17T05:11:24.740Z,10.30
2023-04-17T05:12:45.610Z,10.30
2023-04-17T05:14:06.253Z,10.30
2023-04-17T05:15:26.960Z,10.30
2023-04-17T05:16:48.180Z,10.40
2023-04-17T05:18:09.079Z,10.30
2023-04-17T05:19:29.806Z,10.30
2023-04-17T05:20:50.442Z,10.30
2023-04-17T05:22:11.118Z,10.40
2023-04-17T05:23:31.491Z,10.40
2023-04-17T05:24:53.158Z,10.30
2023-04-17T05:26:14.053Z,10.40
2023-04-17T05:27:36.397Z,10.40
2023-04-17T05:28:57.334Z,10.40
2023-04-17T05:30:18.212Z,10.40
2023-04-17T05:31:38.637Z,10.40
2023-04-17T05:32:59.423Z,10.50
2023-04-17T05:34:20.265Z,10.50
2023-04-17T05:35:40.832Z,10.50
2023-04-17T05:37:01.965Z,10.60
2023-04-17T05:38:22.582Z,10.60
2023-04-17T05:39:43.149Z,10.50
2023-04-17T05:41:03.778Z,10.40
2023-04-17T05:42:24.560Z,10.40
2023-04-17T05:43:47.162Z,10.50
2023-04-17T05:45:12.121Z,10.50
2023-04-17T05:46:32.724Z,10.60
2023-04-17T05:47:53.602Z,10.60
2023-04-17T05:49:14.267Z,10.70
2023-04-17T05:50:34.991Z,10.70
2023-04-17T05:51:55.978Z,10.80
2023-04-17T05:53:16.638Z,10.70
2023-04-17T05:54:37.333Z,10.70
2023-04-17T05:55:58.119Z,10.70
2023-04-17T05:57:18.899Z,10.70
2023-04-17T05:58:39.865Z,10.70
2023-04-17T06:00:02.089Z,10.80
2023-04-17T06:01:22.424Z,10.90
2023-04-17T06:02:44.068Z,10.80
2023-04-17T06:04:05.271Z,10.80
2023-04-17T06:05:26.112Z,10.80
2023-04-17T06:06:47.102Z,10.80
2023-04-17T06:08:07.913Z,10.80
2023-04-17T06:09:28.358Z,10.80
2023-04-17T06:10:49.417Z,10.90
2023-04-17T06:12:10.477Z,10.90
2023-04-17T06:13:32.024Z,10.90
2023-04-17T06:14:52.943Z,10.90
2023-04-17T06:16:15.188Z,10.90
2023-04-17T06:17:36.388Z,10.70
2023-04-17T06:18:57.365Z,10.70
2023-04-17T06:20:18.210Z,10.70
2023-04-17T06:21:38.804Z,10.80
2023-04-17T06:22:59.402Z,10.80
2023-04-17T06:24:20.253Z,10.90
2023-04-17T06:25:41.151Z,11.00
2023-04-17T06:27:01.993Z,10.90
2023-04-17T06:28:22.584Z,11.00
2023-04-17T06:29:43.434Z,10.90
2023-04-17T06:31:04.377Z,11.00
2023-04-17T06:32:27.034Z,10.90
2023-04-17T06:33:47.903Z,10.80
2023-04-17T06:35:09.577Z,10.90
2023-04-17T06:36:30.226Z,10.90
2023-04-17T06:37:50.989Z,10.90
2023-04-17T06:39:12.223Z,10.90
2023-04-17T06:40:33.610Z,10.80
2023-04-17T06:41:54.347Z,10.80
2023-04-17T06:43:16.025Z,10.80
2023-04-17T06:44:36.462Z,10.90
2023-04-17T06:45:57.266Z,10.80
2023-04-17T06:47:18.027Z,10.80
2023-04-17T06:48:40.450Z,10.90
2023-04-17T06:50:01.452Z,10.90
2023-04-17T06:51:21.985Z,10.90
2023-04-17T06:52:42.994Z,10.90
2023-04-17T06:54:03.433Z,10.90
2023-04-17T06:55:24.362Z,11.00
2023-04-17T06:56:45.094Z,11.00
2023-04-17T06:58:07.968Z,11.00
2023-04-17T06:59:28.828Z,11.10
2023-04-17T07:00:49.448Z,11.10
2023-04-17T07:02:10.559Z,11.10
2023-04-17T07:03:31.836Z,11.20
2023-04-17T07:04:54.223Z,11.10
2023-04-17T07:06:14.816Z,11.20
2023-04-17T07:07:35.533Z,11.30
2023-04-17T07:08:56.397Z,11.30
2023-04-17T07:10:17.053Z,11.40
2023-04-17T07:11:38.149Z,11.30
2023-04-17T07:12:58.624Z,11.20
2023-04-17T07:14:19.483Z,11.20
2023-04-17T07:15:40.088Z,11.30
2023-04-17T07:17:00.906Z,11.30
2023-04-17T07:18:21.893Z,11.30
2023-04-17T07:19:42.222Z,11.20
2023-04-17T07:21:04.415Z,11.20
2023-04-17T07:22:27.218Z,11.10
2023-04-17T07:23:48.503Z,11.10
2023-04-17T07:25:09.792Z,11.10
2023-04-17T07:26:30.281Z,11.10
2023-04-17T07:27:51.235Z,11.10
2023-04-17T07:29:12.690Z,11.10
2023-04-17T07:30:34.111Z,11.10
2023-04-17T07:31:54.843Z,11.20
2023-04-17T07:33:15.427Z,11.20
2023-04-17T07:34:36.220Z,11.20
2023-04-17T07:35:57.145Z,11.20
2023-04-17T07:37:19.340Z,11.20
2023-04-17T07:38:41.054Z,11.10
2023-04-17T07:40:01.578Z,11.20
2023-04-17T07:41:22.007Z,11.20
2023-04-17T07:42:42.926Z,11.20
2023-04-17T07:44:03.596Z,11.20
2023-04-17T07:45:24.596Z,11.20
2023-04-17T07:46:45.334Z,11.20
2023-04-17T07:48:06.168Z,11.20
2023-04-17T07:49:26.712Z,11.20
2023-04-17T07:50:47.776Z,11.30
2023-04-17T07:52:08.355Z,11.30
2023-04-17T07:53:30.648Z,11.30
2023-04-17T07:54:52.263Z,11.30
2023-04-17T07:56:14.390Z,11.40
2023-04-17T07:57:35.313Z,11.40
2023-04-17T07:58:56.281Z,11.40
2023-04-17T08:00:17.176Z,11.40
2023-04-17T08:01:37.579Z,11.40
2023-04-17T08:02:58.560Z,11.40
2023-04-17T08:04:19.866Z,11.40
2023-04-17T08:05:40.896Z,11.50
2023-04-17T08:07:01.532Z,11.50
2023-04-17T08:08:22.347Z,11.50
2023-04-17T08:09:44.333Z,11.60
2023-04-17T08:11:05.224Z,11.60
2023-04-17T08:12:26.195Z,11.70
2023-04-17T08:13:46.855Z,11.70
2023-04-17T08:15:08.688Z,11.60
2023-04-17T08:16:29.380Z,11.60
2023-04-17T08:17:50.519Z,11.70
2023-04-17T08:19:11.912Z,11.70
2023-04-17T08:20:33.197Z,11.70
2023-04-17T08:22:01.432Z,11.70
2023-04-17T08:23:21.993Z,11.70
2023-04-17T08:24:44.281Z,11.70
2023-04-17T08:26:05.266Z,11.70
2023-04-17T08:27:26.400Z,11.70
2023-04-17T08:28:47.026Z,11.60
2023-04-17T08:30:11.994Z,11.70
2023-04-17T08:31:33.524Z,11.70
2023-04-17T08:32:54.461Z,11.70
2023-04-17T08:34:15.692Z,11.80
2023-04-17T08:35:36.481Z,11.80
2023-04-17T08:36:57.323Z,11.80
2023-04-17T08:38:17.965Z,11.80
2023-04-17T08:39:38.522Z,11.70
2023-04-17T08:41:03.902Z,11.70
2023-04-17T08:42:24.969Z,11.80
2023-04-17T08:43:48.203Z,11.90
2023-04-17T08:45:10.301Z,11.80
2023-04-17T08:46:31.572Z,11.80
2023-04-17T08:47:52.649Z,11.80
2023-04-17T08:49:13.746Z,11.80
2023-04-17T08:50:35.067Z,11.80
2023-04-17T08:51:55.966Z,11.90
2023-04-17T08:53:17.572Z,11.90
2023-04-17T08:54:38.803Z,12.00
2023-04-17T08:56:05.229Z,11.90
2023-04-17T08:57:28.014Z,12.00
2023-04-17T08:58:49.229Z,12.00
2023-04-17T09:00:12.841Z,11.90
2023-04-17T09:01:33.747Z,11.90
2023-04-17T09:02:56.296Z,11.90
2023-04-17T09:04:35.233Z,12.10
2023-04-17T09:05:57.730Z,12.20
2023-04-17T09:07:18.315Z,12.20
2023-04-17T09:08:39.560Z,12.30
2023-04-17T09:10:00.518Z,12.30
2023-04-17T09:11:23.132Z,12.20
2023-04-17T09:12:59.733Z,12.20
2023-04-17T09:14:29.961Z,12.20
2023-04-17T09:16:06.497Z,12.30
2023-04-17T09:17:34.243Z,12.40
2023-04-17T09:19:05.710Z,12.40
2023-04-17T09:20:26.225Z,12.40
2023-04-17T09:21:47.399Z,12.50
2023-04-17T09:23:08.145Z,12.50
2023-04-17T09:24:35.545Z,12.60
2023-04-17T09:26:06.567Z,12.70
2023-04-17T09:27:29.830Z,12.70
2023-04-17T09:29:02.280Z,12.70
2023-04-17T09:30:25.267Z,12.70
2023-04-17T09:31:46.314Z,12.80
2023-04-17T09:33:07.979Z,12.80
2023-04-17T09:34:29.739Z,12.80
2023-04-17T09:35:55.771Z,12.80
2023-04-17T09:37:18.318Z,12.80
2023-04-17T09:38:42.245Z,12.90
2023-04-17T09:40:04.912Z,13.00
2023-04-17T09:41:28.330Z,13.10
2023-04-17T09:42:58.521Z,13.10
2023-04-17T09:44:25.812Z,13.20
2023-04-17T09:45:46.982Z,13.20
2023-04-17T09:47:08.245Z,13.20
2023-04-17T09:48:29.612Z,13.20
2023-04-17T09:49:51.487Z,13.20
2023-04-17T09:51:12.587Z,13.20
2023-04-17T09:52:33.073Z,13.10
2023-04-17T09:53:54.481Z,13.20
2023-04-17T09:55:15.422Z,13.20
2023-04-17T09:56:36.511Z,13.30
2023-04-17T09:58:01.794Z,13.30
2023-04-17T09:59:23.140Z,13.30
2023-04-17T10:00:44.170Z,13.30
2023-04-17T10:02:07.790Z,13.40
2023-04-17T10:03:29.046Z,13.40
2023-04-17T10:04:49.518Z,13.40
2023-04-17T10:06:10.184Z,13.40
2023-04-17T10:07:32.130Z,13.30
2023-04-17T10:08:53.070Z,13.30
2023-04-17T10:10:16.373Z,13.20
2023-04-17T10:11:39.226Z,13.10
2023-04-17T10:13:02.797Z,13.20
2023-04-17T10:14:26.232Z,13.20
2023-04-17T10:15:46.918Z,13.40
2023-04-17T10:17:22.746Z,13.50
2023-04-17T10:18:43.409Z,13.60
2023-04-17T10:20:35.146Z,13.80
2023-04-17T10:22:30.238Z,13.70
2023-04-17T10:23:50.710Z,13.70
2023-04-17T10:25:19.407Z,13.70
2023-04-17T10:26:39.952Z,13.80
2023-04-17T10:28:02.589Z,14.00
2023-04-17T10:29:53.079Z,14.10
2023-04-17T10:31:14.144Z,14.30
2023-04-17T10:32:35.088Z,14.50
2023-04-17T10:33:55.764Z,14.60
2023-04-17T10:35:34.760Z,14.70
2023-04-17T10:36:55.455Z,14.80
2023-04-17T10:38:15.917Z,14.90
2023-04-17T10:39:49.987Z,14.90
2023-04-17T10:41:10.875Z,15.00
2023-04-17T10:42:31.729Z,15.00
2023-04-17T10:43:57.659Z,15.10
2023-04-17T10:45:19.217Z,15.20
2023-04-17T10:46:48.023Z,15.20
2023-04-17T10:48:20.017Z,15.20
2023-04-17T10:49:50.880Z,15.30
2023-04-17T10:51:39.551Z,15.30
2023-04-17T10:53:00.420Z,15.20
2023-04-17T10:54:21.254Z,15.20
2023-04-17T10:55:48.796Z,15.20
2023-04-17T10:57:09.245Z,15.30
2023-04-17T10:58:31.557Z,15.30
2023-04-17T11:00:11.167Z,15.30
2023-04-17T11:01:39.288Z,15.40
2023-04-17T11:03:01.265Z,15.40
2023-04-17T11:04:23.928Z,15.40
2023-04-17T11:05:45.053Z,15.40
2023-04-17T11:07:05.940Z,15.40
2023-04-17T11:08:26.466Z,15.40
2023-04-17T11:09:51.695Z,15.50
2023-04-17T11:11:12.668Z,15.50
2023-04-17T11:12:33.481Z,15.60
2023-04-17T11:13:54.055Z,15.70
2023-04-17T11:15:16.753Z,15.80
2023-04-17T11:16:38.364Z,15.80
2023-04-17T11:17:59.162Z,15.80
2023-04-17T11:19:21.607Z,15.90
2023-04-17T11:20:42.460Z,15.90
2023-04-17T11:22:03.332Z,16.00
2023-04-17T11:23:24.293Z,16.00
2023-04-17T11:24:45.116Z,16.10
2023-04-17T11:26:06.385Z,16.20
2023-04-17T11:27:27.501Z,16.30
2023-04-17T11:28:47.927Z,16.40
2023-04-17T11:30:09.561Z,16.50
2023-04-17T11:31:31.606Z,16.50
2023-04-17T11:32:52.113Z,16.60
2023-04-17T11:34:13.353Z,16.70
2023-04-17T11:35:35.717Z,16.80
2023-04-17T11:36:57.252Z,16.90
2023-04-17T11:38:19.674Z,17.00
2023-04-17T11:39:42.510Z,17.10
2023-04-17T11:41:03.082Z,17.10
2023-04-17T11:42:26.635Z,17.20
2023-04-17T11:43:46.928Z,17.30
2023-04-17T11:45:08.301Z,17.40
2023-04-17T11:46:31.121Z,17.50
2023-04-17T11:47:52.586Z,17.50
2023-04-17T11:49:13.159Z,17.60
2023-04-17T11:50:35.596Z,17.70
2023-04-17T11:51:59.531Z,17.80
2023-04-17T11:53:20.327Z,17.80
2023-04-17T11:54:40.864Z,17.80
2023-04-17T11:56:11.785Z,17.70
2023-04-17T11:57:41.310Z,17.80
2023-04-17T11:59:02.051Z,17.70
2023-04-17T12:00:26.965Z,17.60
2023-04-17T12:01:52.944Z,17.60
2023-04-17T12:03:32.110Z,17.60
2023-04-17T12:05:13.111Z,17.80
2023-04-17T12:06:37.074Z,17.70
2023-04-17T12:08:04.583Z,17.60
2023-04-17T12:09:24.911Z,17.60
2023-04-17T12:10:45.755Z,17.70
2023-04-17T12:12:07.866Z,17.80
2023-04-17T12:13:28.598Z,18.00
2023-04-17T12:14:49.282Z,18.00
2023-04-17T12:16:10.108Z,18.10
2023-04-17T12:17:32.352Z,18.10
2023-04-17T12:18:53.495Z,18.20
2023-04-17T12:20:15.374Z,18.20
2023-04-17T12:21:35.826Z,18.10
2023-04-17T12:22:56.492Z,18.10
2023-04-17T12:24:16.951Z,18.30
2023-04-17T12:25:37.833Z,18.20
2023-04-17T12:26:58.208Z,18.30
2023-04-17T12:28:18.854Z,18.40
2023-04-17T12:29:44.595Z,18.60
2023-04-17T12:31:05.803Z,18.60
2023-04-17T12:32:26.495Z,18.60
2023-04-17T12:33:48.379Z,18.70
2023-04-17T12:35:09.805Z,18.80
2023-04-17T12:36:30.824Z,18.80
2023-04-17T12:37:51.330Z,18.90
2023-04-17T12:39:11.732Z,18.90
2023-04-17T12:40:32.380Z,18.90
2023-04-17T12:41:53.251Z,19.00
2023-04-17T12:43:13.855Z,19.30
2023-04-17T12:44:34.551Z,19.30
2023-04-17T12:45:57.742Z,19.50
2023-04-17T12:47:18.625Z,19.50
2023-04-17T12:48:39.217Z,19.50
2023-04-17T12:50:01.227Z,19.60
2023-04-17T12:51:21.935Z,19.60
2023-04-17T12:52:44.927Z,19.60
2023-04-17T12:54:06.105Z,19.80
2023-04-17T12:55:27.080Z,19.80
2023-04-17T12:56:47.879Z,19.80
2023-04-17T12:58:11.508Z,20.00
2023-04-17T12:59:32.217Z,20.10
2023-04-17T13:00:52.825Z,20.20
2023-04-17T13:02:13.675Z,20.30
2023-04-17T13:03:34.660Z,20.30
2023-04-17T13:04:55.299Z,20.20
2023-04-17T13:06:17.414Z,20.10
2023-04-17T13:07:38.113Z,19.90
2023-04-17T13:08:58.818Z,20.00
2023-04-17T13:10:19.621Z,19.90
2023-04-17T13:11:40.112Z,19.90
2023-04-17T13:13:01.209Z,19.90
2023-04-17T13:14:21.683Z,20.10
2023-04-17T13:15:43.377Z,20.30
2023-04-17T13:17:04.568Z,20.00
2023-04-17T13:18:24.984Z,20.00
2023-04-17T13:19:45.847Z,20.10
2023-04-17T13:21:06.987Z,20.30
2023-04-17T13:22:28.801Z,20.40
2023-04-17T13:23:49.599Z,20.30
2023-04-17T13:25:10.494Z,20.20
2023-04-17T13:26:30.994Z,20.30
2023-04-17T13:27:51.670Z,20.30
2023-04-17T13:29:12.694Z,20.40
2023-04-17T13:30:33.601Z,20.60
2023-04-17T13:31:54.225Z,20.60
2023-04-17T13:33:15.158Z,20.70
2023-04-17T13:34:35.832Z,20.70
2023-04-17T13:35:56.246Z,20.60
2023-04-17T13:37:17.201Z,20.50
2023-04-17T13:38:39.352Z,20.60
2023-04-17T13:39:59.888Z,20.70
2023-04-17T13:41:20.734Z,20.80
2023-04-17T13:42:41.395Z,20.90
2023-04-17T13:44:02.069Z,21.00
2023-04-17T13:45:22.868Z,21.00
2023-04-17T13:46:43.488Z,21.00
2023-04-17T13:48:04.327Z,20.70
2023-04-17T13:49:25.509Z,20.60
2023-04-17T13:50:46.191Z,20.50
2023-04-17T13:52:07.183Z,20.60
2023-04-17T13:53:27.620Z,20.70
2023-04-17T13:54:51.757Z,20.70
2023-04-17T13:56:13.232Z,20.90
2023-04-17T13:57:34.468Z,20.80
2023-04-17T13:58:55.206Z,20.70
2023-04-17T14:00:16.515Z,20.70
2023-04-17T14:01:38.090Z,20.70
2023-04-17T14:02:58.899Z,20.70
2023-04-17T14:04:20.113Z,20.60
2023-04-17T14:05:40.759Z,20.70
2023-04-17T14:07:01.771Z,20.50
2023-04-17T14:08:22.902Z,20.50
2023-04-17T14:09:44.024Z,20.60
2023-04-17T14:11:06.533Z,21.00
2023-04-17T14:12:27.269Z,21.00
2023-04-17T14:13:48.203Z,20.90
2023-04-17T14:15:10.221Z,20.90
2023-04-17T14:16:32.153Z,21.00
2023-04-17T14:17:53.127Z,21.00
2023-04-17T14:19:14.818Z,20.90
2023-04-17T14:20:36.210Z,20.90
2023-04-17T14:21:56.760Z,20.70
2023-04-17T14:23:17.437Z,20.70
2023-04-17T14:24:38.259Z,20.70
2023-04-17T14:25:59.315Z,20.60
2023-04-17T14:27:21.241Z,20.60
2023-04-17T14:28:41.978Z,20.50
2023-04-17T14:30:02.742Z,20.50
2023-04-17T14:31:23.433Z,20.50
2023-04-17T14:32:43.951Z,20.50
2023-04-17T14:34:04.415Z,20.60
2023-04-17T14:35:25.190Z,20.60
2023-04-17T14:36:46.182Z,20.50
2023-04-17T14:38:07.075Z,20.40
2023-04-17T14:39:29.545Z,20.50
2023-04-17T14:40:51.711Z,20.60
2023-04-17T14:42:12.715Z,20.50
2023-04-17T14:43:34.835Z,20.30
2023-04-17T14:44:55.675Z,20.40
2023-04-17T14:46:16.219Z,20.50
2023-04-17T14:47:36.849Z,20.40
2023-04-17T14:48:57.498Z,20.50
2023-04-17T14:50:18.682Z,20.70
2023-04-17T14:51:39.231Z,20.70
2023-04-17T14:53:00.030Z,20.60
2023-04-17T14:54:20.810Z,20.60
2023-04-17T14:55:41.405Z,20.70
2023-04-17T14:57:01.984Z,20.60
2023-04-17T14:58:22.845Z,20.60
2023-04-17T14:59:44.913Z,20.60
2023-04-17T15:01:08.925Z,20.60
2023-04-17T15:02:29.874Z,20.70
2023-04-17T15:03:51.075Z,20.70
2023-04-17T15:05:12.443Z,20.70
2023-04-17T15:06:33.952Z,20.70
2023-04-17T15:07:57.073Z,20.80
2023-04-17T15:09:18.487Z,20.80
2023-04-17T15:10:50.183Z,20.90
2023-04-17T15:12:12.627Z,21.00
2023-04-17T15:13:33.187Z,20.90
2023-04-17T15:14:55.038Z,20.80
2023-04-17T15:16:16.156Z,20.80
2023-04-17T15:17:37.244Z,20.90
2023-04-17T15:18:58.041Z,21.10
2023-04-17T15:20:22.046Z,21.10
2023-04-17T15:21:42.989Z,21.20
2023-04-17T15:23:04.423Z,21.20
2023-04-17T15:24:25.667Z,21.20
2023-04-17T15:25:46.291Z,21.30
2023-04-17T15:27:07.216Z,21.30
2023-04-17T15:28:27.961Z,21.20
2023-04-17T15:29:48.557Z,21.40
2023-04-17T15:31:10.892Z,21.60
2023-04-17T15:32:31.523Z,21.80
2023-04-17T15:33:52.500Z,21.80
2023-04-17T15:35:13.406Z,21.70
2023-04-17T15:36:34.242Z,21.90
2023-04-17T15:37:55.122Z,21.80
2023-04-17T15:39:15.994Z,21.80
2023-04-17T15:40:37.170Z,21.90
2023-04-17T15:41:58.122Z,21.90
2023-04-17T15:43:18.992Z,21.80
2023-04-17T15:44:39.554Z,22.00
2023-04-17T15:46:02.781Z,21.90
2023-04-17T15:47:24.979Z,22.00
2023-04-17T15:48:46.713Z,22.10
2023-04-17T15:50:11.398Z,22.30
2023-04-17T15:51:32.215Z,22.40
2023-04-17T15:52:52.950Z,22.60
2023-04-17T15:54:13.357Z,22.50
2023-04-17T15:55:34.271Z,22.40
2023-04-17T15:56:55.477Z,22.60
2023-04-17T15:58:16.756Z,22.50
2023-04-17T15:59:37.395Z,22.60
2023-04-17T16:00:58.110Z,22.60
2023-04-17T16:02:19.228Z,22.40
2023-04-17T16:03:41.464Z,22.50
2023-04-17T16:05:02.964Z,22.40
2023-04-17T16:06:23.885Z,22.30
2023-04-17T16:07:44.576Z,22.20
2023-04-17T16:09:07.808Z,22.10
2023-04-17T16:10:28.630Z,21.90
2023-04-17T16:11:49.672Z,21.70
2023-04-17T16:13:10.563Z,21.60
2023-04-17T16:14:34.324Z,21.40
2023-04-17T16:15:54.854Z,21.30
2023-04-17T16:17:15.486Z,21.20
2023-04-17T16:18:35.996Z,21.20
2023-04-17T16:19:58.212Z,21.10
2023-04-17T16:21:19.016Z,20.90
2023-04-17T16:22:39.968Z,20.90
2023-04-17T16:24:00.678Z,20.80
2023-04-17T16:25:21.176Z,20.70
2023-04-17T16:26:41.815Z,20.60
2023-04-17T16:28:02.463Z,20.50
2023-04-17T16:29:23.592Z,20.30
2023-04-17T16:30:44.148Z,20.20
2023-04-17T16:32:04.985Z,20.30
2023-04-17T16:33:25.802Z,20.30
2023-04-17T16:34:46.755Z,20.30
2023-04-17T16:36:09.415Z,20.20
2023-04-17T16:37:30.104Z,20.20
2023-04-17T16:38:50.713Z,20.30
2023-04-17T16:40:12.240Z,20.40
2023-04-17T16:41:33.294Z,20.40
2023-04-17T16:42:54.209Z,20.40
2023-04-17T16:44:16.571Z,20.50
2023-04-17T16:45:37.576Z,20.30
2023-04-17T16:47:12.800Z,20.30
2023-04-17T16:48:35.376Z,20.30
2023-04-17T16:49:56.283Z,20.20
2023-04-17T16:51:18.580Z,20.30
2023-04-17T16:52:39.714Z,20.40
2023-04-17T16:54:00.878Z,20.50
2023-04-17T16:55:21.431Z,20.60
2023-04-17T16:56:42.581Z,20.60
2023-04-17T16:58:03.497Z,20.70
2023-04-17T16:59:24.182Z,20.70
2023-04-17T17:00:45.032Z,20.70
2023-04-17T17:02:05.848Z,20.70
2023-04-17T17:03:27.006Z,20.70
2023-04-17T17:04:48.214Z,20.80
2023-04-17T17:06:09.085Z,20.90
2023-04-17T17:07:31.315Z,20.90
2023-04-17T17:10:12.976Z,20.70
2023-04-17T17:11:34.102Z,20.80
2023-04-17T17:12:55.160Z,20.90
2023-04-17T17:14:15.655Z,20.80
2023-04-17T17:15:36.382Z,20.90
2023-04-17T17:16:57.327Z,20.70
2023-04-17T17:18:18.188Z,20.70
2023-04-17T17:19:38.912Z,20.60
2023-04-17T17:20:59.560Z,20.40
2023-04-17T17:22:20.122Z,20.40
2023-04-17T17:23:42.536Z,20.40
2023-04-17T17:25:03.690Z,20.30
2023-04-17T17:26:24.625Z,20.50
2023-04-17T17:27:45.327Z,20.20
2023-04-17T17:29:05.966Z,20.20
2023-04-17T17:30:26.884Z,20.30
2023-04-17T17:31:48.337Z,20.20
2023-04-17T17:33:08.688Z,20.20
2023-04-17T17:34:30.715Z,20.20
2023-04-17T17:35:51.434Z,20.20
2023-04-17T17:37:12.159Z,20.10